Time;durP1;ratioP1;P1;durP2;ratioP2;P2;SDS_P1;SDS_P2;PMS_P1;PMS_P2;Temp;Humidity;BMP_temperature;BMP_pressure;BME280_temperature;BME280_humidity;BME280_pressure;Samples;Min_cycle;Max_cycle;Signal;HPM_P1;HPM_P2
2022/04/13 00:00:07;;;;;;;7.60;4.90;;;;;;;9.18;58.05;101329.63;5055004;28;20494;-48
2022/04/13 00:02:35;;;;;;;7.60;4.18;;;;;;;9.10;58.08;101336.97;5072986;28;20163;-49
2022/04/13 00:05:01;;;;;;;6.43;5.40;;;;;;;9.02;58.54;101329.13;5072823;28;20167;-50
2022/04/13 00:07:28;;;;;;;6.78;5.05;;;;;;;9.10;58.13;101328.94;5072153;28;20359;-48
2022/04/13 00:09:54;;;;;;;5.40;4.40;;;;;;;9.06;58.29;101317.44;5072558;28;20167;-46
2022/04/13 00:12:19;;;;;;;5.97;4.82;;;;;;;8.98;58.56;101316.72;5072471;28;20179;-46
2022/04/13 00:14:45;;;;;;;5.45;4.60;;;;;;;8.99;58.45;101319.38;5072489;28;20560;-46
2022/04/13 00:17:11;;;;;;;10.07;5.35;;;;;;;9.02;58.45;101319.28;5071664;28;20183;-45
2022/04/13 00:19:36;;;;;;;8.88;4.53;;;;;;;9.05;58.30;101308.56;5072364;28;20582;-46
2022/04/13 00:22:01;;;;;;;6.75;5.00;;;;;;;9.10;57.77;101297.75;5072896;28;21077;-48
2022/04/13 00:24:27;;;;;;;6.05;5.00;;;;;;;9.10;57.89;101296.88;5072810;28;20194;-49
2022/04/13 00:26:52;;;;;;;10.38;4.35;;;;;;;9.00;58.41;101299.75;5072248;28;20209;-48
2022/04/13 00:29:18;;;;;;;7.63;4.70;;;;;;;8.99;58.43;101291.78;5072849;28;20198;-47
2022/04/13 00:31:44;;;;;;;6.40;4.70;;;;;;;9.00;58.36;101282.84;5072438;28;20166;-49
2022/04/13 00:34:09;;;;;;;5.85;4.82;;;;;;;8.98;58.45;101282.00;5071609;28;20171;-50
2022/04/13 00:36:35;;;;;;;5.90;4.70;;;;;;;8.91;58.60;101283.06;5072514;28;20163;-51
2022/04/13 00:39:00;;;;;;;6.35;4.97;;;;;;;8.93;58.32;101284.78;5072330;28;20238;-46
2022/04/13 00:41:26;;;;;;;6.43;4.50;;;;;;;8.86;58.86;101275.16;5072163;28;20171;-48
2022/04/13 00:44:05;;;;;;;5.40;4.63;;;;;;;8.92;58.41;101274.13;5072314;28;20230;-49
2022/04/13 00:46:31;;;;;;;6.28;4.55;;;;;;;8.89;58.61;101269.72;5072146;28;20201;-46
2022/04/13 00:48:58;;;;;;;7.57;4.90;;;;;;;8.86;58.87;101270.69;5071943;28;20195;-48
2022/04/13 00:51:25;;;;;;;8.32;4.53;;;;;;;8.84;58.81;101277.88;5071891;28;20193;-49
2022/04/13 00:53:52;;;;;;;6.38;4.70;;;;;;;8.89;58.58;101264.38;5072267;28;20167;-49
2022/04/13 00:56:23;;;;;;;8.60;5.03;;;;;;;8.88;58.81;101268.00;5054063;28;20212;-47
2022/04/13 00:58:54;;;;;;;6.88;4.75;;;;;;;8.86;58.77;101249.31;5071847;28;20651;-49
2022/04/13 01:01:22;;;;;;;6.55;4.80;;;;;;;8.78;59.32;101253.09;5072089;28;20181;-47
2022/04/13 01:03:51;;;;;;;10.68;5.00;;;;;;;8.78;59.07;101255.75;5071962;28;20691;-52
2022/04/13 01:06:20;;;;;;;7.47;4.80;;;;;;;8.73;59.32;101255.00;5071742;28;20174;-49
2022/04/13 01:08:50;;;;;;;6.85;5.32;;;;;;;8.63;59.57;101246.31;5071504;28;20667;-53
2022/04/13 01:11:17;;;;;;;7.60;4.70;;;;;;;8.73;59.07;101253.19;5071712;28;20601;-48
2022/04/13 01:13:42;;;;;;;6.55;5.18;;;;;;;8.86;58.40;101238.63;5071643;28;20253;-49
2022/04/13 01:16:08;;;;;;;9.32;5.38;;;;;;;8.80;58.62;101256.59;5071349;28;20213;-49
2022/04/13 01:18:34;;;;;;;5.25;4.63;;;;;;;8.87;58.32;101244.84;5071503;28;20218;-48
2022/04/13 01:21:00;;;;;;;8.48;5.03;;;;;;;8.74;59.06;101243.38;5053319;28;20591;-46
2022/04/13 01:23:27;;;;;;;8.20;5.30;;;;;;;8.68;59.13;101241.75;5071395;28;20273;-48
2022/04/13 01:25:54;;;;;;;5.32;4.53;;;;;;;8.70;58.89;101242.56;5071557;28;20696;-47
2022/04/13 01:28:20;;;;;;;6.38;4.97;;;;;;;8.74;58.71;101246.06;5053155;28;20245;-46
2022/04/13 01:30:46;;;;;;;6.70;5.00;;;;;;;8.72;58.91;101247.88;5071375;28;20183;-45
2022/04/13 01:33:12;;;;;;;8.25;5.30;;;;;;;8.67;59.11;101248.00;5071213;28;20177;-50
2022/04/13 01:35:38;;;;;;;7.75;4.95;;;;;;;8.71;59.08;101257.69;5069293;28;20205;-49
2022/04/13 01:38:04;;;;;;;9.85;5.10;;;;;;;8.68;58.79;101246.19;5070243;28;20251;-50
2022/04/13 01:40:29;;;;;;;6.30;4.80;;;;;;;8.69;58.70;101246.16;5070607;28;20170;-51
2022/04/13 01:42:55;;;;;;;6.93;5.40;;;;;;;8.68;59.19;101251.53;5070170;28;20179;-46
2022/04/13 01:45:21;;;;;;;5.70;4.93;;;;;;;8.70;58.80;101257.72;5070810;28;20195;-48
2022/04/13 01:47:48;;;;;;;5.97;4.93;;;;;;;8.64;59.07;101256.09;5071180;28;20240;-47
2022/04/13 01:50:16;;;;;;;5.18;4.63;;;;;;;8.70;59.37;101255.06;5071288;28;20741;-49
2022/04/13 01:52:42;;;;;;;6.90;5.20;;;;;;;8.64;59.13;101251.63;5070499;28;20697;-49
2022/04/13 01:55:08;;;;;;;6.20;4.93;;;;;;;8.58;59.50;101259.78;5070831;28;20167;-52
2022/04/13 01:57:34;;;;;;;8.77;5.25;;;;;;;8.58;59.44;101251.75;5070607;28;20186;-53
2022/04/13 02:00:00;;;;;;;9.55;5.20;;;;;;;8.58;59.59;101251.75;5070659;28;20302;-52
2022/04/13 02:02:25;;;;;;;5.68;4.40;;;;;;;8.57;59.55;101250.00;5070610;28;20242;-45
2022/04/13 02:04:51;;;;;;;7.53;5.00;;;;;;;8.53;59.63;101245.66;5070601;28;20167;-49
2022/04/13 02:07:16;;;;;;;6.85;5.43;;;;;;;8.48;59.81;101247.53;5070754;28;20190;-48
2022/04/13 02:09:42;;;;;;;6.53;4.85;;;;;;;8.49;59.97;101246.63;5070470;28;20186;-48
2022/04/13 02:12:08;;;;;;;7.78;4.97;;;;;;;8.42;60.09;101242.34;5070679;28;20167;-47
2022/04/13 02:14:33;;;;;;;6.22;4.93;;;;;;;8.37;60.56;101238.84;5070190;28;20175;-49
2022/04/13 02:16:59;;;;;;;6.18;5.15;;;;;;;8.34;60.76;101233.59;5070594;28;20194;-48
2022/04/13 02:19:24;;;;;;;8.55;5.20;;;;;;;8.27;61.17;101229.31;5070458;28;20526;-47
2022/04/13 02:21:49;;;;;;;9.05;5.00;;;;;;;8.32;60.78;101230.09;5070356;28;20266;-47
2022/04/13 02:24:15;;;;;;;6.95;4.82;;;;;;;8.29;61.01;101228.38;5070579;28;20645;-49
2022/04/13 02:26:40;;;;;;;7.95;5.30;;;;;;;8.27;61.17;101230.19;5070400;28;20289;-48
2022/04/13 02:29:06;;;;;;;7.78;5.70;;;;;;;8.21;61.08;101224.97;5070610;28;20268;-49
2022/04/13 02:34:05;;;;;;;6.88;5.70;;;;;;;8.16;61.95;101222.41;5040753;28;20289;-51
2022/04/13 02:36:32;;;;;;;6.63;5.05;;;;;;;8.18;61.34;101228.59;5047969;28;20206;-50
2022/04/13 02:38:57;;;;;;;6.90;4.57;;;;;;;8.15;61.46;101234.00;5031767;28;20222;-48
2022/04/13 02:41:23;;;;;;;7.53;5.60;;;;;;;8.12;61.37;101236.75;5054402;22;20383;-49
2022/04/13 02:43:48;;;;;;;5.95;5.03;;;;;;;8.14;61.14;101228.72;5041797;28;20630;-47
2022/04/13 02:46:14;;;;;;;7.97;4.93;;;;;;;8.11;61.64;101231.41;5049043;28;20175;-48
2022/04/13 02:48:39;;;;;;;6.10;5.50;;;;;;;8.15;61.57;101228.66;5048958;28;20195;-47
2022/04/13 02:51:05;;;;;;;8.20;5.03;;;;;;;8.12;61.33;101236.75;5049351;28;20890;-47
2022/04/13 02:53:31;;;;;;;10.43;5.50;;;;;;;8.11;61.60;101227.00;5015458;28;20187;-47
2022/04/13 02:55:57;;;;;;;6.05;4.75;;;;;;;8.15;61.57;101234.00;5049361;28;20241;-47
2022/04/13 02:58:23;;;;;;;7.30;5.35;;;;;;;8.10;61.48;101224.34;5051096;28;20191;-46
2022/04/13 03:00:48;;;;;;;7.18;5.05;;;;;;;8.11;61.06;101210.97;5053768;28;20171;-48
2022/04/13 03:03:14;;;;;;;8.48;5.20;;;;;;;8.16;61.31;101211.75;5053787;28;20609;-46
2022/04/13 03:05:39;;;;;;;7.82;5.63;;;;;;;8.16;61.56;101209.06;5053464;28;20171;-49
2022/04/13 03:08:05;;;;;;;8.13;5.57;;;;;;;8.19;61.49;101194.78;5053231;28;20576;-48
2022/04/13 03:10:31;;;;;;;6.55;5.07;;;;;;;8.16;61.53;101203.72;5053828;28;20251;-49
2022/04/13 03:12:56;;;;;;;6.82;5.25;;;;;;;8.19;61.76;101200.97;5053143;28;20638;-47
2022/04/13 03:15:23;;;;;;;7.80;6.10;;;;;;;8.16;61.51;101194.84;5053639;28;20179;-47
2022/04/13 03:17:51;;;;;;;8.07;5.43;;;;;;;8.09;62.25;101187.88;5053249;28;20226;-49
2022/04/13 03:20:18;;;;;;;6.82;5.55;;;;;;;8.15;61.82;101193.94;5053005;28;20563;-49
2022/04/13 03:22:44;;;;;;;7.05;5.50;;;;;;;8.19;61.48;101197.44;5054166;28;20194;-48
2022/04/13 03:25:09;;;;;;;7.60;6.10;;;;;;;8.20;61.50;101202.75;5053505;28;20179;-47
2022/04/13 03:27:37;;;;;;;7.78;5.35;;;;;;;8.14;61.36;101210.91;5053210;28;20210;-47
2022/04/13 03:30:02;;;;;;;7.25;5.55;;;;;;;8.15;61.39;101211.75;5053335;28;20179;-47
2022/04/13 03:32:38;;;;;;;7.40;6.20;;;;;;;8.18;61.22;101215.25;5053532;28;20267;-49
2022/04/13 03:35:08;;;;;;;7.93;5.40;;;;;;;8.12;61.68;101215.38;5050549;28;20331;-52
2022/04/13 03:37:33;;;;;;;12.30;5.47;;;;;;;8.06;62.16;101215.50;5052459;28;20203;-53
2022/04/13 03:39:59;;;;;;;9.07;5.65;;;;;;;8.16;61.59;101209.06;5053125;28;20221;-47
2022/04/13 03:42:24;;;;;;;6.70;5.70;;;;;;;8.16;61.59;101194.84;5052730;28;20270;-47
2022/04/13 03:44:50;;;;;;;8.75;5.93;;;;;;;8.17;61.65;101209.94;5031554;28;20550;-49
2022/04/13 03:47:15;;;;;;;10.35;6.53;;;;;;;8.19;61.48;101208.13;5052485;28;20300;-55
2022/04/13 03:49:41;;;;;;;6.90;5.95;;;;;;;8.16;61.33;101209.06;5052251;28;20199;-48
2022/04/13 03:52:07;;;;;;;8.15;5.95;;;;;;;8.22;61.41;101205.38;5053215;28;20643;-48
2022/04/13 03:54:33;;;;;;;9.38;6.50;;;;;;;8.25;61.22;101205.31;5052677;28;20179;-49
2022/04/13 03:56:58;;;;;;;7.97;6.32;;;;;;;8.25;60.94;101203.53;5052421;28;20673;-46
2022/04/13 03:59:24;;;;;;;7.90;5.97;;;;;;;8.27;60.96;101203.50;5052463;28;20300;-46
2022/04/13 04:01:50;;;;;;;8.23;6.03;;;;;;;8.33;60.49;101206.03;5052421;28;20809;-47
2022/04/13 04:04:15;;;;;;;8.70;5.55;;;;;;;8.30;61.11;101206.09;5052909;28;20175;-46
2022/04/13 04:06:41;;;;;;;11.35;5.75;;;;;;;8.32;60.93;101211.41;5052136;28;20662;-47
2022/04/13 04:09:07;;;;;;;10.02;6.53;;;;;;;8.31;60.92;101210.53;5051579;28;20607;-50
2022/04/13 04:11:32;;;;;;;10.95;6.25;;;;;;;8.33;60.70;101191.78;5052491;28;20645;-52
2022/04/13 04:13:58;;;;;;;12.88;6.88;;;;;;;8.31;60.70;101201.63;5052537;28;20155;-46
2022/04/13 04:16:23;;;;;;;7.90;5.78;;;;;;;8.26;61.04;101212.41;5051927;28;20640;-48
2022/04/13 04:18:50;;;;;;;11.23;6.35;;;;;;;8.22;61.40;101216.03;5052279;28;20219;-53
2022/04/13 04:21:15;;;;;;;9.10;5.60;;;;;;;8.19;61.53;101203.66;5034627;28;20172;-50
2022/04/13 04:23:42;;;;;;;7.88;5.80;;;;;;;8.17;61.77;101209.94;5052719;28;20194;-51
2022/04/13 04:26:07;;;;;;;9.25;6.15;;;;;;;8.14;61.84;101218.03;5051997;28;20588;-50
2022/04/13 04:28:33;;;;;;;7.95;6.38;;;;;;;8.14;61.77;101220.69;5051434;28;20195;-50
2022/04/13 04:30:58;;;;;;;7.75;6.25;;;;;;;8.12;61.85;101212.72;5051741;28;20245;-50
2022/04/13 04:33:25;;;;;;;9.80;6.18;;;;;;;8.10;62.00;101221.69;5051830;28;20187;-46
2022/04/13 04:35:51;;;;;;;9.48;6.20;;;;;;;8.13;61.94;101221.59;5051939;28;20186;-46
2022/04/13 04:38:18;;;;;;;9.35;6.65;;;;;;;8.08;62.02;101227.03;5051424;28;20223;-47
2022/04/13 04:40:43;;;;;;;10.45;6.25;;;;;;;8.06;62.19;101226.19;5051558;28;20649;-50
2022/04/13 04:43:09;;;;;;;7.63;6.18;;;;;;;8.02;62.40;101232.50;5051490;28;20187;-48
2022/04/13 04:45:35;;;;;;;11.05;6.78;;;;;;;8.01;62.51;101241.44;5051840;28;20226;-49
2022/04/13 04:48:04;;;;;;;6.88;5.93;;;;;;;7.96;62.97;101241.53;5051298;28;20298;-50
2022/04/13 04:50:31;;;;;;;12.55;5.75;;;;;;;7.95;62.86;101236.22;5051265;28;20164;-50
2022/04/13 04:52:57;;;;;;;9.80;6.30;;;;;;;7.91;63.18;101230.06;5051606;28;20179;-47
2022/04/13 04:55:22;;;;;;;9.93;6.82;;;;;;;7.96;63.09;101241.53;5051140;28;20237;-47
2022/04/13 04:57:48;;;;;;;7.85;6.00;;;;;;;7.96;63.19;101245.97;5050995;28;20195;-48
2022/04/13 05:00:20;;;;;;;9.18;5.88;;;;;;;8.01;63.09;101246.75;5051284;28;20183;-48
2022/04/13 05:02:49;;;;;;;8.32;6.10;;;;;;;8.01;62.74;101238.75;5051352;28;20187;-48
2022/04/13 05:05:15;;;;;;;8.90;6.38;;;;;;;8.08;62.58;101239.50;5051062;28;20175;-47
2022/04/13 05:07:41;;;;;;;9.63;6.88;;;;;;;8.06;62.65;101234.19;5050772;28;20203;-49
2022/04/13 05:10:08;;;;;;;9.23;6.28;;;;;;;8.01;63.43;101236.97;5050770;28;20168;-50
2022/04/13 05:12:45;;;;;;;8.57;6.70;;;;;;;8.06;63.05;101239.53;5051226;28;20532;-50
2022/04/13 05:15:11;;;;;;;7.45;6.05;;;;;;;8.04;63.21;101241.34;5050907;28;20543;-48
2022/04/13 05:17:37;;;;;;;9.40;6.60;;;;;;;8.08;63.22;101242.19;5050633;28;20670;-50
2022/04/13 05:20:04;;;;;;;9.43;6.30;;;;;;;8.09;62.89;101239.47;5032589;28;20271;-48
2022/04/13 05:22:30;;;;;;;8.65;6.22;;;;;;;8.14;62.96;101237.59;5050886;28;20190;-49
2022/04/13 05:25:00;;;;;;;11.32;6.57;;;;;;;8.18;62.94;101238.41;5050833;28;20175;-51
2022/04/13 05:27:25;;;;;;;10.10;6.55;;;;;;;8.14;63.33;101253.59;5050345;28;20225;-48
2022/04/13 05:29:50;;;;;;;10.05;6.63;;;;;;;8.18;62.94;101249.97;5032946;28;20211;-48
2022/04/13 05:32:16;;;;;;;7.88;6.30;;;;;;;8.16;63.03;101241.09;5050972;28;20250;-49
2022/04/13 05:34:41;;;;;;;11.45;7.15;;;;;;;8.17;63.10;101249.97;5050579;28;20587;-48
2022/04/13 05:37:07;;;;;;;8.98;6.30;;;;;;;8.15;63.49;101251.81;5050605;28;20275;-47
2022/04/13 05:39:32;;;;;;;11.80;6.78;;;;;;;8.19;63.42;101251.69;5050570;28;20225;-48
2022/04/13 05:41:58;;;;;;;10.82;7.18;;;;;;;8.18;63.92;101247.28;5050867;28;20191;-48
2022/04/13 05:44:23;;;;;;;8.45;6.75;;;;;;;8.23;62.95;101248.06;5016621;28;20183;-47
2022/04/13 05:46:48;;;;;;;8.88;6.65;;;;;;;8.31;62.84;101247.91;5051044;28;20245;-48
2022/04/13 05:49:14;;;;;;;8.65;6.68;;;;;;;8.31;63.00;101255.91;5050917;28;20198;-48
2022/04/13 05:51:39;;;;;;;9.57;6.75;;;;;;;8.35;62.99;101267.38;5050591;28;20581;-47
2022/04/13 05:54:05;;;;;;;8.32;7.00;;;;;;;8.36;63.59;101267.34;5051016;28;20167;-47
2022/04/13 05:56:30;;;;;;;7.70;6.18;;;;;;;8.32;63.43;101279.00;5050274;28;20166;-47
2022/04/13 05:58:56;;;;;;;12.57;7.18;;;;;;;8.37;63.87;101287.78;5050247;28;20217;-48
2022/04/13 06:01:21;;;;;;;10.00;7.57;;;;;;;8.44;63.23;101267.22;5050742;28;20233;-47
2022/04/13 06:03:46;;;;;;;9.57;7.50;;;;;;;8.53;62.98;101276.84;5050616;28;20657;-48
2022/04/13 06:06:12;;;;;;;8.98;7.15;;;;;;;8.60;63.08;101271.31;5050423;28;20269;-48
2022/04/13 06:08:37;;;;;;;11.70;7.32;;;;;;;8.65;62.90;101269.38;5049894;28;20776;-48
2022/04/13 06:11:03;;;;;;;9.45;6.55;;;;;;;8.72;63.48;101278.13;5050057;28;20191;-47
2022/04/13 06:13:28;;;;;;;9.02;7.20;;;;;;;8.79;62.41;101289.56;5032555;28;20567;-47
2022/04/13 06:15:54;;;;;;;8.75;7.38;;;;;;;8.83;62.11;101289.47;5050108;28;20191;-48
2022/04/13 06:18:19;;;;;;;9.15;7.20;;;;;;;8.85;62.32;101287.66;5050071;28;20265;-47
2022/04/13 06:20:45;;;;;;;12.90;7.43;;;;;;;8.87;62.12;101293.81;5050130;28;20172;-47
2022/04/13 06:23:11;;;;;;;10.18;7.53;;;;;;;8.89;62.24;101296.44;5032126;28;20198;-47
2022/04/13 06:25:36;;;;;;;8.50;6.95;;;;;;;8.91;61.99;101304.44;5032282;28;20187;-49
2022/04/13 06:28:02;;;;;;;8.90;6.60;;;;;;;8.99;61.69;101302.47;5050614;28;20207;-47
2022/04/13 06:30:27;;;;;;;10.20;6.90;;;;;;;9.03;61.38;101285.41;5049774;28;20649;-50
2022/04/13 06:32:53;;;;;;;10.95;7.40;;;;;;;9.03;61.53;101304.13;5049351;28;20240;-47
2022/04/13 06:35:18;;;;;;;11.63;7.25;;;;;;;9.14;61.60;101291.41;5050641;28;20191;-49
2022/04/13 06:37:45;;;;;;;11.90;6.97;;;;;;;9.14;61.40;101298.53;5049995;28;20199;-48
2022/04/13 06:40:12;;;;;;;11.23;7.05;;;;;;;9.18;61.30;101293.09;5031788;28;20179;-50
2022/04/13 06:42:39;;;;;;;9.93;6.75;;;;;;;9.20;61.34;101296.56;5048378;28;20191;-49
2022/04/13 06:45:11;;;;;;;9.52;7.13;;;;;;;9.19;61.08;101288.63;5050083;28;20559;-47
2022/04/13 06:47:37;;;;;;;10.25;7.03;;;;;;;9.15;61.27;101287.81;5031452;28;20282;-48
2022/04/13 06:50:03;;;;;;;10.40;7.45;;;;;;;9.16;60.87;101304.72;5032345;28;20241;-48
2022/04/13 06:52:33;;;;;;;9.95;7.47;;;;;;;9.28;61.33;101301.75;5049934;28;20669;-46
2022/04/13 06:54:58;;;;;;;9.45;6.63;;;;;;;9.28;61.20;101304.41;5031465;28;20222;-47
2022/04/13 06:57:24;;;;;;;8.32;7.03;;;;;;;9.37;61.66;101304.19;5049687;28;20195;-48
2022/04/13 06:59:49;;;;;;;8.30;6.90;;;;;;;9.50;61.23;101296.72;5049850;28;20155;-47
2022/04/13 07:02:15;;;;;;;9.40;6.90;;;;;;;9.60;61.75;101306.25;5049929;28;20175;-46
2022/04/13 07:04:41;;;;;;;10.88;7.70;;;;;;;9.72;61.00;101301.50;5049935;28;20669;-50
2022/04/13 07:07:06;;;;;;;10.13;7.30;;;;;;;10.07;60.49;101300.50;5049248;28;20195;-49
2022/04/13 07:09:33;;;;;;;10.23;7.63;;;;;;;10.14;60.01;101307.44;5049602;28;20216;-48
2022/04/13 07:11:58;;;;;;;9.88;6.78;;;;;;;10.29;59.62;101303.47;5049600;28;20188;-48
2022/04/13 07:14:23;;;;;;;9.77;7.05;;;;;;;10.41;59.06;101304.94;5049776;28;20216;-47
2022/04/13 07:16:49;;;;;;;10.95;7.50;;;;;;;10.53;59.43;101304.53;5049014;28;20198;-51
2022/04/13 07:19:15;;;;;;;10.77;6.93;;;;;;;10.61;58.33;101302.50;5049509;28;20273;-47
2022/04/13 07:21:40;;;;;;;9.02;6.78;;;;;;;10.77;58.19;101312.75;5049688;28;20655;-49
2022/04/13 07:24:06;;;;;;;10.98;6.88;;;;;;;11.01;57.75;101320.00;5049378;28;20241;-48
2022/04/13 07:26:32;;;;;;;9.63;6.90;;;;;;;10.97;57.68;101315.66;5049695;28;20263;-48
2022/04/13 07:28:58;;;;;;;11.30;7.15;;;;;;;11.23;57.53;101308.59;5049410;28;20201;-49
2022/04/13 07:31:24;;;;;;;8.07;6.20;;;;;;;11.51;57.44;101305.84;5049348;28;20677;-50
2022/04/13 07:33:49;;;;;;;10.00;7.40;;;;;;;11.38;56.79;101313.44;5049386;28;20250;-47
2022/04/13 07:36:15;;;;;;;8.68;7.07;;;;;;;11.61;56.88;101311.75;5049059;28;20314;-49
2022/04/13 07:38:40;;;;;;;11.13;7.22;;;;;;;11.30;56.49;101319.09;5048879;28;20206;-48
2022/04/13 07:41:06;;;;;;;11.40;6.80;;;;;;;11.42;56.71;101319.59;5049735;28;20184;-48
2022/04/13 07:43:31;;;;;;;9.20;7.05;;;;;;;11.76;56.63;101300.50;5049607;28;20186;-47
2022/04/13 07:45:57;;;;;;;9.75;7.20;;;;;;;11.85;56.32;101312.72;5053082;28;20155;-46
2022/04/13 07:48:22;;;;;;;7.97;6.45;;;;;;;11.68;56.58;101307.97;5052875;28;20685;-47
2022/04/13 07:50:48;;;;;;;10.95;7.25;;;;;;;11.62;56.24;101303.66;5052844;28;20665;-49
2022/04/13 07:53:14;;;;;;;9.10;6.60;;;;;;;11.59;56.39;101308.25;5052890;28;20521;-48
2022/04/13 07:55:40;;;;;;;8.48;6.68;;;;;;;11.67;57.10;101304.38;5052916;28;20548;-47
2022/04/13 07:58:06;;;;;;;9.73;7.10;;;;;;;11.78;55.92;101308.50;5052937;28;20195;-47
2022/04/13 08:00:32;;;;;;;10.68;7.20;;;;;;;11.60;56.38;101316.25;5052415;28;20168;-48
2022/04/13 08:02:58;;;;;;;9.25;6.90;;;;;;;11.67;56.41;101320.47;5052497;28;20602;-47
2022/04/13 08:05:24;;;;;;;9.20;6.55;;;;;;;11.66;57.02;101315.19;5052519;28;20258;-48
2022/04/13 08:07:49;;;;;;;7.63;6.82;;;;;;;11.82;57.40;101321.75;5051970;28;20724;-47
2022/04/13 08:10:15;;;;;;;10.68;6.47;;;;;;;11.87;56.08;101325.16;5034502;28;20197;-48
2022/04/13 08:12:41;;;;;;;9.70;7.13;;;;;;;11.92;56.54;101330.41;5052251;28;20664;-47
2022/04/13 08:15:07;;;;;;;8.90;6.72;;;;;;;12.16;56.71;101328.63;5048499;28;20816;-47
2022/04/13 08:17:33;;;;;;;9.15;6.93;;;;;;;12.07;55.53;101318.22;5047147;28;20207;-50
2022/04/13 08:19:59;;;;;;;11.10;6.70;;;;;;;12.28;55.85;101321.91;5049396;28;20175;-49
2022/04/13 08:22:26;;;;;;;8.98;6.90;;;;;;;12.61;55.45;101327.81;5049604;28;20645;-46
2022/04/13 08:24:51;;;;;;;9.90;6.82;;;;;;;12.58;55.42;101333.31;5050202;28;20175;-52
2022/04/13 08:27:18;;;;;;;7.22;6.38;;;;;;;12.74;55.00;101320.16;5049474;28;20613;-47
2022/04/13 08:29:45;;;;;;;12.02;7.50;;;;;;;12.85;55.10;101333.19;5050144;28;20203;-53
2022/04/13 08:32:10;;;;;;;9.40;7.15;;;;;;;12.85;54.07;101335.88;5050372;28;20646;-47
2022/04/13 08:34:36;;;;;;;9.10;6.70;;;;;;;13.12;54.29;101339.28;5050406;28;20171;-49
2022/04/13 08:37:01;;;;;;;12.13;6.60;;;;;;;13.33;53.35;101330.31;5050080;28;20203;-49
2022/04/13 08:39:26;;;;;;;9.98;7.07;;;;;;;13.42;53.74;101338.97;5051376;28;20273;-47
2022/04/13 08:41:57;;;;;;;9.13;6.47;;;;;;;14.00;53.42;101326.56;5051072;28;20187;-50
2022/04/13 08:44:39;;;;;;;9.68;6.40;;;;;;;14.36;52.98;101322.25;5051850;28;20593;-47
2022/04/13 08:47:10;;;;;;;11.10;6.75;;;;;;;14.53;51.95;101332.25;5051064;28;20199;-48
2022/04/13 08:49:39;;;;;;;8.05;6.63;;;;;;;14.49;51.59;101336.91;5050408;28;20559;-47
2022/04/13 08:52:08;;;;;;;9.93;7.65;;;;;;;14.48;51.71;101320.81;5032974;28;20171;-48
2022/04/13 08:54:44;;;;;;;9.45;6.75;;;;;;;14.80;51.03;101325.59;5044052;28;20749;-48
2022/04/13 08:57:12;;;;;;;9.07;7.13;;;;;;;14.60;51.49;101331.91;5049960;28;20191;-46
2022/04/13 09:00:06;;;;;;;11.07;6.88;;;;;;;15.00;52.35;101326.47;5050491;28;20172;-46
2022/04/13 09:02:57;;;;;;;11.00;7.15;;;;;;;14.81;44.70;101324.63;5048693;28;20253;-47
2022/04/13 09:05:27;;;;;;;11.52;6.78;;;;;;;14.90;50.28;101331.41;5012900;28;20187;-48
2022/04/13 09:08:34;;;;;;;11.57;7.10;;;;;;;15.25;50.75;101332.38;5050964;28;20849;-46
2022/04/13 09:11:01;;;;;;;9.93;6.72;;;;;;;15.66;50.63;101337.53;5050679;28;20199;-48
2022/04/13 09:13:28;;;;;;;8.90;6.78;;;;;;;15.69;49.76;101344.59;5051040;28;20198;-47
2022/04/13 09:15:56;;;;;;;8.60;6.25;;;;;;;15.30;51.19;101340.25;5051099;28;20178;-46
2022/04/13 09:18:22;;;;;;;8.50;6.93;;;;;;;15.44;51.74;101340.44;5050623;28;20197;-47
2022/04/13 09:20:47;;;;;;;10.30;7.53;;;;;;;15.92;50.07;101327.22;5050194;28;20175;-48
2022/04/13 09:23:15;;;;;;;10.60;7.60;;;;;;;15.61;51.09;101336.91;5050928;28;20695;-44
2022/04/13 09:25:40;;;;;;;9.93;6.90;;;;;;;15.82;50.36;101347.56;5050652;28;20167;-45
2022/04/13 09:28:06;;;;;;;12.18;7.60;;;;;;;15.60;51.23;101354.03;5050288;28;20218;-46
2022/04/13 09:30:33;;;;;;;8.32;6.85;;;;;;;15.99;51.43;101344.00;5050192;28;20479;-50
2022/04/13 09:33:01;;;;;;;9.57;7.60;;;;;;;16.09;49.64;101345.22;5050749;28;20179;-47
2022/04/13 09:35:30;;;;;;;9.75;7.05;;;;;;;15.93;49.89;101349.72;5032549;28;20541;-47
2022/04/13 09:37:56;;;;;;;11.15;7.25;;;;;;;16.08;49.59;101346.19;5050143;28;20199;-46
2022/04/13 09:40:41;;;;;;;9.65;7.60;;;;;;;16.57;49.12;101353.47;5032552;28;20616;-48
2022/04/13 09:43:13;;;;;;;8.52;7.20;;;;;;;16.80;47.76;101355.84;5054727;22;20715;-45
2022/04/13 09:45:43;;;;;;;11.27;7.75;;;;;;;16.68;47.90;101348.34;5067707;28;20206;-48
2022/04/13 09:48:18;;;;;;;10.65;7.57;;;;;;;16.38;50.18;101353.63;5067625;28;20552;-49
2022/04/13 09:50:45;;;;;;;11.23;7.57;;;;;;;16.74;48.81;101336.31;5032968;28;20285;-46
2022/04/13 09:53:13;;;;;;;9.80;7.60;;;;;;;16.66;49.85;101343.03;5030172;28;20270;-47
2022/04/13 09:55:40;;;;;;;11.88;7.50;;;;;;;16.76;49.97;101347.94;5030254;28;20199;-48
2022/04/13 09:58:18;;;;;;;10.43;8.18;;;;;;;16.68;48.79;101348.34;5029775;28;20188;-48
2022/04/13 10:00:46;;;;;;;10.93;7.93;;;;;;;16.87;48.79;101348.25;5030155;28;20234;-46
2022/04/13 10:03:16;;;;;;;8.75;7.47;;;;;;;17.00;48.85;101343.00;5029979;28;20338;-47
2022/04/13 10:05:47;;;;;;;12.52;8.38;;;;;;;16.67;48.12;101350.19;5030199;28;20196;-46
2022/04/13 10:08:14;;;;;;;10.77;7.85;;;;;;;16.91;47.75;101357.06;5029543;28;20207;-50
2022/04/13 10:10:42;;;;;;;13.48;8.75;;;;;;;16.80;50.60;101353.13;5030002;28;20168;-46
2022/04/13 10:13:07;;;;;;;13.75;9.48;;;;;;;16.86;49.09;101358.19;5029560;28;20222;-46
2022/04/13 10:15:33;;;;;;;12.00;8.32;;;;;;;16.96;50.14;101352.25;5029846;28;20215;-45
2022/04/13 10:17:59;;;;;;;11.65;8.35;;;;;;;17.48;49.02;101349.25;5029413;28;20709;-47
2022/04/13 10:20:42;;;;;;;12.80;8.45;;;;;;;17.61;47.60;101362.94;5029693;28;20218;-46
2022/04/13 10:23:07;;;;;;;10.23;7.85;;;;;;;17.43;49.84;101354.94;5029334;28;20172;-49
2022/04/13 10:25:33;;;;;;;13.75;9.57;;;;;;;16.99;49.12;101361.09;5029086;28;20187;-45
2022/04/13 10:28:00;;;;;;;13.82;9.45;;;;;;;17.32;50.08;101359.22;5029463;28;20196;-47
2022/04/13 10:30:32;;;;;;;17.23;9.43;;;;;;;17.38;49.15;101356.16;5029562;28;20231;-50
2022/04/13 10:33:00;;;;;;;12.80;9.52;;;;;;;17.41;46.98;101350.59;5028972;28;20160;-47
2022/04/13 10:35:26;;;;;;;10.70;8.73;;;;;;;17.59;47.65;101345.91;5029429;28;20623;-45
2022/04/13 10:37:52;;;;;;;17.35;9.82;;;;;;;17.73;50.12;101351.34;5029144;28;20265;-49
2022/04/13 10:40:20;;;;;;;14.02;9.57;;;;;;;17.63;49.67;101358.31;5029609;28;20626;-46
2022/04/13 10:42:48;;;;;;;16.17;10.88;;;;;;;17.53;50.00;101363.38;5029393;28;20271;-46
2022/04/13 10:45:14;;;;;;;13.43;10.05;;;;;;;17.48;50.42;101357.38;5029964;28;20172;-47
2022/04/13 10:47:59;;;;;;;15.15;10.10;;;;;;;17.55;50.47;101361.47;5029068;28;20592;-46
2022/04/13 10:50:44;;;;;;;16.30;10.80;;;;;;;17.43;50.85;101359.50;5028861;28;20183;-50
2022/04/13 10:53:27;;;;;;;13.75;10.07;;;;;;;17.69;50.15;101361.53;5012451;28;20191;-45
2022/04/13 10:56:06;;;;;;;14.77;10.05;;;;;;;17.44;50.54;101351.25;5029559;28;20699;-46
2022/04/13 10:58:58;;;;;;;12.10;9.75;;;;;;;17.64;50.60;101349.22;5028919;28;20191;-46
2022/04/13 11:01:28;;;;;;;19.85;10.98;;;;;;;17.95;49.58;101348.28;5029198;28;20206;-46
2022/04/13 11:03:55;;;;;;;17.00;10.55;;;;;;;17.91;50.64;101357.56;5028952;28;20156;-47
2022/04/13 11:06:22;;;;;;;18.00;11.25;;;;;;;18.38;50.67;101356.47;5029454;28;20643;-46
2022/04/13 11:08:56;;;;;;;16.52;10.68;;;;;;;18.49;49.77;101361.22;5029179;28;20717;-48
2022/04/13 11:11:24;;;;;;;20.45;11.10;;;;;;;17.91;50.42;101361.16;5029400;28;20175;-47
2022/04/13 11:13:51;;;;;;;15.77;10.88;;;;;;;18.10;50.38;101351.88;5029185;28;20172;-46
2022/04/13 11:16:24;;;;;;;15.27;10.85;;;;;;;18.57;50.29;101360.75;5028812;28;20204;-45
2022/04/13 11:19:05;;;;;;;17.42;10.63;;;;;;;18.67;50.16;101359.16;5030296;28;20168;-46
2022/04/13 11:21:35;;;;;;;14.73;10.10;;;;;;;18.88;50.48;101360.53;5032739;28;20186;-46
2022/04/13 11:24:00;;;;;;;16.63;10.63;;;;;;;19.28;49.92;101362.50;5033492;28;20595;-46
2022/04/13 11:26:34;;;;;;;15.85;10.38;;;;;;;19.18;50.57;101362.25;5032631;28;20251;-46
2022/04/13 11:29:09;;;;;;;14.85;10.45;;;;;;;19.25;48.82;101366.28;5032554;28;20297;-46